sensor_id;sensor_type;location;lat;lon;timestamp;P1;durP1;ratioP1;P2;durP2;ratioP2
23155;SDS011;11746;50.876;4.246;2022-07-21T00:00:20;16.08;;;13.13;;
23155;SDS011;11746;50.876;4.246;2022-07-21T00:02:50;15.18;;;13.07;;
23155;SDS011;11746;50.876;4.246;2022-07-21T00:05:18;19.48;;;13.30;;
23155;SDS011;11746;50.876;4.246;2022-07-21T00:07:45;16.02;;;14.05;;
23155;SDS011;11746;50.876;4.246;2022-07-21T00:10:11;19.48;;;13.75;;
23155;SDS011;11746;50.876;4.246;2022-07-21T00:12:38;15.35;;;13.73;;
23155;SDS011;11746;50.876;4.246;2022-07-21T00:15:08;15.48;;;13.20;;
23155;SDS011;11746;50.876;4.246;2022-07-21T00:17:35;14.20;;;12.73;;
23155;SDS011;11746;50.876;4.246;2022-07-21T00:20:01;16.85;;;12.63;;
23155;SDS011;11746;50.876;4.246;2022-07-21T00:22:28;14.05;;;12.55;;
23155;SDS011;11746;50.876;4.246;2022-07-21T00:24:54;16.25;;;13.50;;
23155;SDS011;11746;50.876;4.246;2022-07-21T00:27:19;14.30;;;12.80;;
23155;SDS011;11746;50.876;4.246;2022-07-21T00:29:45;18.75;;;13.15;;
23155;SDS011;11746;50.876;4.246;2022-07-21T00:32:11;16.58;;;13.10;;
23155;SDS011;11746;50.876;4.246;2022-07-21T00:34:37;15.85;;;11.85;;
23155;SDS011;11746;50.876;4.246;2022-07-21T00:37:02;14.73;;;12.43;;
23155;SDS011;11746;50.876;4.246;2022-07-21T00:39:28;16.00;;;12.00;;
23155;SDS011;11746;50.876;4.246;2022-07-21T00:41:59;14.35;;;12.07;;
23155;SDS011;11746;50.876;4.246;2022-07-21T00:44:26;15.77;;;12.02;;
23155;SDS011;11746;50.876;4.246;2022-07-21T00:46:54;15.38;;;12.10;;
23155;SDS011;11746;50.876;4.246;2022-07-21T00:49:23;14.20;;;12.70;;
23155;SDS011;11746;50.876;4.246;2022-07-21T00:51:50;14.63;;;11.93;;
23155;SDS011;11746;50.876;4.246;2022-07-21T00:54:16;17.88;;;12.57;;
23155;SDS011;11746;50.876;4.246;2022-07-21T00:56:46;13.40;;;11.77;;
23155;SDS011;11746;50.876;4.246;2022-07-21T00:59:15;15.27;;;11.73;;
23155;SDS011;11746;50.876;4.246;2022-07-21T01:01:43;17.77;;;13.40;;
23155;SDS011;11746;50.876;4.246;2022-07-21T01:04:09;15.75;;;11.90;;
23155;SDS011;11746;50.876;4.246;2022-07-21T01:06:34;18.42;;;12.40;;
23155;SDS011;11746;50.876;4.246;2022-07-21T01:09:00;13.90;;;12.20;;
23155;SDS011;11746;50.876;4.246;2022-07-21T01:11:27;14.57;;;11.93;;
23155;SDS011;11746;50.876;4.246;2022-07-21T01:13:58;14.25;;;11.48;;
23155;SDS011;11746;50.876;4.246;2022-07-21T01:16:24;14.65;;;12.25;;
23155;SDS011;11746;50.876;4.246;2022-07-21T01:18:50;17.00;;;11.57;;
23155;SDS011;11746;50.876;4.246;2022-07-21T01:21:21;20.95;;;12.02;;
23155;SDS011;11746;50.876;4.246;2022-07-21T01:23:52;16.75;;;11.68;;
23155;SDS011;11746;50.876;4.246;2022-07-21T01:26:18;14.50;;;11.68;;
23155;SDS011;11746;50.876;4.246;2022-07-21T01:28:46;16.88;;;11.50;;
23155;SDS011;11746;50.876;4.246;2022-07-21T01:31:12;15.73;;;11.38;;
23155;SDS011;11746;50.876;4.246;2022-07-21T01:33:41;16.63;;;11.48;;
23155;SDS011;11746;50.876;4.246;2022-07-21T01:36:08;18.92;;;11.40;;
23155;SDS011;11746;50.876;4.246;2022-07-21T01:38:34;17.15;;;11.73;;
23155;SDS011;11746;50.876;4.246;2022-07-21T01:41:18;14.00;;;10.40;;
23155;SDS011;11746;50.876;4.246;2022-07-21T01:43:56;14.70;;;10.35;;
23155;SDS011;11746;50.876;4.246;2022-07-21T01:46:23;16.17;;;10.77;;
23155;SDS011;11746;50.876;4.246;2022-07-21T01:48:49;11.40;;;10.20;;
23155;SDS011;11746;50.876;4.246;2022-07-21T01:51:15;18.63;;;10.80;;
23155;SDS011;11746;50.876;4.246;2022-07-21T01:53:43;12.15;;;9.80;;
23155;SDS011;11746;50.876;4.246;2022-07-21T01:56:11;14.35;;;10.60;;
23155;SDS011;11746;50.876;4.246;2022-07-21T01:58:39;16.45;;;9.98;;
23155;SDS011;11746;50.876;4.246;2022-07-21T02:01:08;14.45;;;9.48;;
23155;SDS011;11746;50.876;4.246;2022-07-21T02:03:36;14.82;;;9.82;;
23155;SDS011;11746;50.876;4.246;2022-07-21T02:06:02;12.18;;;9.60;;
23155;SDS011;11746;50.876;4.246;2022-07-21T02:08:29;18.40;;;10.30;;
23155;SDS011;11746;50.876;4.246;2022-07-21T02:10:54;12.75;;;9.63;;
23155;SDS011;11746;50.876;4.246;2022-07-21T02:13:20;13.15;;;9.85;;
23155;SDS011;11746;50.876;4.246;2022-07-21T02:15:46;14.32;;;9.60;;
23155;SDS011;11746;50.876;4.246;2022-07-21T02:18:14;11.38;;;9.45;;
23155;SDS011;11746;50.876;4.246;2022-07-21T02:20:39;15.63;;;9.13;;
23155;SDS011;11746;50.876;4.246;2022-07-21T02:23:07;12.23;;;9.05;;
23155;SDS011;11746;50.876;4.246;2022-07-21T02:25:32;11.63;;;8.93;;
23155;SDS011;11746;50.876;4.246;2022-07-21T02:27:59;14.88;;;9.02;;
23155;SDS011;11746;50.876;4.246;2022-07-21T02:30:26;14.52;;;9.15;;
23155;SDS011;11746;50.876;4.246;2022-07-21T02:32:55;14.88;;;9.23;;
23155;SDS011;11746;50.876;4.246;2022-07-21T02:35:23;12.75;;;8.75;;
23155;SDS011;11746;50.876;4.246;2022-07-21T02:37:49;12.25;;;8.90;;
23155;SDS011;11746;50.876;4.246;2022-07-21T02:40:14;14.20;;;9.48;;
23155;SDS011;11746;50.876;4.246;2022-07-21T02:42:42;15.32;;;9.18;;
23155;SDS011;11746;50.876;4.246;2022-07-21T02:45:10;18.20;;;9.23;;
23155;SDS011;11746;50.876;4.246;2022-07-21T02:47:49;13.05;;;8.68;;
23155;SDS011;11746;50.876;4.246;2022-07-21T02:50:20;14.70;;;9.38;;
23155;SDS011;11746;50.876;4.246;2022-07-21T02:52:47;12.98;;;8.18;;
23155;SDS011;11746;50.876;4.246;2022-07-21T02:55:16;14.43;;;8.40;;
23155;SDS011;11746;50.876;4.246;2022-07-21T02:57:44;12.25;;;8.38;;
23155;SDS011;11746;50.876;4.246;2022-07-21T03:00:11;12.52;;;8.20;;
23155;SDS011;11746;50.876;4.246;2022-07-21T03:02:37;14.15;;;8.20;;
23155;SDS011;11746;50.876;4.246;2022-07-21T03:05:10;12.10;;;7.55;;
23155;SDS011;11746;50.876;4.246;2022-07-21T03:07:38;11.30;;;7.15;;
23155;SDS011;11746;50.876;4.246;2022-07-21T03:10:04;10.93;;;7.40;;
23155;SDS011;11746;50.876;4.246;2022-07-21T03:12:30;12.32;;;8.02;;
23155;SDS011;11746;50.876;4.246;2022-07-21T03:14:59;15.55;;;7.53;;
23155;SDS011;11746;50.876;4.246;2022-07-21T03:17:25;14.85;;;7.72;;
23155;SDS011;11746;50.876;4.246;2022-07-21T03:19:50;12.90;;;7.68;;
23155;SDS011;11746;50.876;4.246;2022-07-21T03:22:19;11.45;;;7.35;;
23155;SDS011;11746;50.876;4.246;2022-07-21T03:24:44;14.52;;;8.43;;
23155;SDS011;11746;50.876;4.246;2022-07-21T03:27:18;13.23;;;8.05;;
23155;SDS011;11746;50.876;4.246;2022-07-21T03:29:44;13.77;;;8.48;;
23155;SDS011;11746;50.876;4.246;2022-07-21T03:32:10;12.50;;;9.40;;
23155;SDS011;11746;50.876;4.246;2022-07-21T03:34:36;13.77;;;8.65;;
23155;SDS011;11746;50.876;4.246;2022-07-21T03:37:02;14.77;;;9.52;;
23155;SDS011;11746;50.876;4.246;2022-07-21T03:39:27;15.73;;;9.50;;
23155;SDS011;11746;50.876;4.246;2022-07-21T03:41:53;14.75;;;9.80;;
23155;SDS011;11746;50.876;4.246;2022-07-21T03:44:19;15.27;;;10.27;;
23155;SDS011;11746;50.876;4.246;2022-07-21T03:46:46;14.98;;;10.93;;
23155;SDS011;11746;50.876;4.246;2022-07-21T03:49:14;19.15;;;11.43;;
23155;SDS011;11746;50.876;4.246;2022-07-21T03:51:43;22.00;;;11.50;;
23155;SDS011;11746;50.876;4.246;2022-07-21T03:54:08;18.27;;;11.95;;
23155;SDS011;11746;50.876;4.246;2022-07-21T03:56:36;17.27;;;11.85;;
23155;SDS011;11746;50.876;4.246;2022-07-21T03:59:02;15.55;;;11.68;;
23155;SDS011;11746;50.876;4.246;2022-07-21T04:01:28;20.95;;;12.40;;
23155;SDS011;11746;50.876;4.246;2022-07-21T04:03:54;18.38;;;11.98;;
23155;SDS011;11746;50.876;4.246;2022-07-21T04:06:20;17.35;;;12.45;;
23155;SDS011;11746;50.876;4.246;2022-07-21T04:08:46;16.15;;;12.52;;
23155;SDS011;11746;50.876;4.246;2022-07-21T04:11:14;22.48;;;13.07;;
23155;SDS011;11746;50.876;4.246;2022-07-21T04:13:40;19.42;;;13.68;;
23155;SDS011;11746;50.876;4.246;2022-07-21T04:16:05;24.17;;;13.27;;
23155;SDS011;11746;50.876;4.246;2022-07-21T04:18:31;18.45;;;13.02;;
23155;SDS011;11746;50.876;4.246;2022-07-21T04:20:59;17.80;;;13.50;;
23155;SDS011;11746;50.876;4.246;2022-07-21T04:23:25;22.95;;;14.98;;
23155;SDS011;11746;50.876;4.246;2022-07-21T04:25:51;21.77;;;15.40;;
23155;SDS011;11746;50.876;4.246;2022-07-21T04:28:16;19.33;;;14.00;;
23155;SDS011;11746;50.876;4.246;2022-07-21T04:30:42;19.50;;;13.52;;
23155;SDS011;11746;50.876;4.246;2022-07-21T04:33:08;20.83;;;14.82;;
23155;SDS011;11746;50.876;4.246;2022-07-21T04:35:34;23.38;;;14.23;;
23155;SDS011;11746;50.876;4.246;2022-07-21T04:38:00;20.70;;;13.85;;
23155;SDS011;11746;50.876;4.246;2022-07-21T04:40:26;20.17;;;14.38;;
23155;SDS011;11746;50.876;4.246;2022-07-21T04:42:54;20.58;;;14.75;;
23155;SDS011;11746;50.876;4.246;2022-07-21T04:45:22;26.88;;;15.52;;
23155;SDS011;11746;50.876;4.246;2022-07-21T04:47:49;24.05;;;14.52;;
23155;SDS011;11746;50.876;4.246;2022-07-21T04:50:20;21.70;;;14.15;;
23155;SDS011;11746;50.876;4.246;2022-07-21T04:52:46;19.00;;;14.45;;
23155;SDS011;11746;50.876;4.246;2022-07-21T04:55:12;21.95;;;14.45;;
23155;SDS011;11746;50.876;4.246;2022-07-21T04:57:43;23.00;;;15.40;;
23155;SDS011;11746;50.876;4.246;2022-07-21T05:00:12;18.77;;;15.15;;
23155;SDS011;11746;50.876;4.246;2022-07-21T05:02:43;20.27;;;15.27;;
23155;SDS011;11746;50.876;4.246;2022-07-21T05:05:09;26.42;;;15.93;;
23155;SDS011;11746;50.876;4.246;2022-07-21T05:07:35;25.42;;;16.73;;
23155;SDS011;11746;50.876;4.246;2022-07-21T05:10:05;21.15;;;15.73;;
23155;SDS011;11746;50.876;4.246;2022-07-21T05:12:34;22.40;;;16.23;;
23155;SDS011;11746;50.876;4.246;2022-07-21T05:15:00;20.95;;;16.63;;
23155;SDS011;11746;50.876;4.246;2022-07-21T05:17:33;22.63;;;17.13;;
23155;SDS011;11746;50.876;4.246;2022-07-21T05:20:02;22.65;;;17.13;;
23155;SDS011;11746;50.876;4.246;2022-07-21T05:22:30;23.17;;;16.58;;
23155;SDS011;11746;50.876;4.246;2022-07-21T05:24:56;24.05;;;17.35;;
23155;SDS011;11746;50.876;4.246;2022-07-21T05:27:24;31.23;;;18.50;;
23155;SDS011;11746;50.876;4.246;2022-07-21T05:29:52;26.92;;;17.27;;
23155;SDS011;11746;50.876;4.246;2022-07-21T05:32:20;24.55;;;18.20;;
23155;SDS011;11746;50.876;4.246;2022-07-21T05:34:46;27.02;;;18.58;;
23155;SDS011;11746;50.876;4.246;2022-07-21T05:37:12;26.77;;;18.30;;
23155;SDS011;11746;50.876;4.246;2022-07-21T05:39:37;24.90;;;17.75;;
23155;SDS011;11746;50.876;4.246;2022-07-21T05:42:03;22.05;;;17.52;;
23155;SDS011;11746;50.876;4.246;2022-07-21T05:44:29;26.05;;;18.85;;
23155;SDS011;11746;50.876;4.246;2022-07-21T05:46:56;24.00;;;17.75;;
23155;SDS011;11746;50.876;4.246;2022-07-21T05:49:24;24.50;;;17.98;;
23155;SDS011;11746;50.876;4.246;2022-07-21T05:51:50;26.42;;;17.67;;
23155;SDS011;11746;50.876;4.246;2022-07-21T05:54:18;25.88;;;18.23;;
23155;SDS011;11746;50.876;4.246;2022-07-21T05:56:43;24.73;;;18.50;;
23155;SDS011;11746;50.876;4.246;2022-07-21T05:59:12;27.02;;;18.58;;
23155;SDS011;11746;50.876;4.246;2022-07-21T06:01:37;28.85;;;19.38;;
23155;SDS011;11746;50.876;4.246;2022-07-21T06:04:05;27.52;;;20.17;;
23155;SDS011;11746;50.876;4.246;2022-07-21T06:06:33;26.63;;;19.05;;
23155;SDS011;11746;50.876;4.246;2022-07-21T06:08:59;26.60;;;19.40;;
23155;SDS011;11746;50.876;4.246;2022-07-21T06:11:27;27.52;;;20.75;;
23155;SDS011;11746;50.876;4.246;2022-07-21T06:13:53;30.40;;;20.52;;
23155;SDS011;11746;50.876;4.246;2022-07-21T06:16:21;28.08;;;19.05;;
23155;SDS011;11746;50.876;4.246;2022-07-21T06:18:47;29.70;;;21.10;;
23155;SDS011;11746;50.876;4.246;2022-07-21T06:21:12;30.13;;;20.35;;
23155;SDS011;11746;50.876;4.246;2022-07-21T06:23:38;30.40;;;21.75;;
23155;SDS011;11746;50.876;4.246;2022-07-21T06:26:03;32.53;;;23.52;;
23155;SDS011;11746;50.876;4.246;2022-07-21T06:28:30;32.17;;;22.65;;
23155;SDS011;11746;50.876;4.246;2022-07-21T06:30:57;33.33;;;23.58;;
23155;SDS011;11746;50.876;4.246;2022-07-21T06:33:26;34.78;;;24.15;;
23155;SDS011;11746;50.876;4.246;2022-07-21T06:35:54;35.47;;;25.73;;
23155;SDS011;11746;50.876;4.246;2022-07-21T06:38:20;38.95;;;25.90;;
23155;SDS011;11746;50.876;4.246;2022-07-21T06:40:46;39.05;;;26.38;;
23155;SDS011;11746;50.876;4.246;2022-07-21T06:43:12;35.30;;;24.23;;
23155;SDS011;11746;50.876;4.246;2022-07-21T06:45:38;39.03;;;25.92;;
23155;SDS011;11746;50.876;4.246;2022-07-21T06:48:05;46.53;;;26.65;;
23155;SDS011;11746;50.876;4.246;2022-07-21T06:50:32;41.92;;;27.77;;
23155;SDS011;11746;50.876;4.246;2022-07-21T06:52:58;45.20;;;27.52;;
23155;SDS011;11746;50.876;4.246;2022-07-21T06:55:27;41.42;;;27.67;;
23155;SDS011;11746;50.876;4.246;2022-07-21T06:57:53;41.88;;;27.83;;
23155;SDS011;11746;50.876;4.246;2022-07-21T07:00:22;44.13;;;28.48;;
23155;SDS011;11746;50.876;4.246;2022-07-21T07:02:48;45.88;;;28.65;;
23155;SDS011;11746;50.876;4.246;2022-07-21T07:05:14;44.85;;;29.08;;
23155;SDS011;11746;50.876;4.246;2022-07-21T07:07:42;47.70;;;29.55;;
23155;SDS011;11746;50.876;4.246;2022-07-21T07:10:08;49.40;;;29.52;;
23155;SDS011;11746;50.876;4.246;2022-07-21T07:12:39;51.40;;;29.35;;
23155;SDS011;11746;50.876;4.246;2022-07-21T07:15:05;49.60;;;29.85;;
23155;SDS011;11746;50.876;4.246;2022-07-21T07:17:31;48.35;;;29.90;;
23155;SDS011;11746;50.876;4.246;2022-07-21T07:19:57;43.90;;;29.52;;
23155;SDS011;11746;50.876;4.246;2022-07-21T07:22:26;52.60;;;30.15;;
23155;SDS011;11746;50.876;4.246;2022-07-21T07:24:52;46.78;;;30.23;;
23155;SDS011;11746;50.876;4.246;2022-07-21T07:27:17;45.65;;;28.52;;
23155;SDS011;11746;50.876;4.246;2022-07-21T07:29:45;47.80;;;29.25;;
23155;SDS011;11746;50.876;4.246;2022-07-21T07:32:11;47.05;;;30.15;;
23155;SDS011;11746;50.876;4.246;2022-07-21T07:34:37;42.13;;;28.90;;
23155;SDS011;11746;50.876;4.246;2022-07-21T07:37:03;43.15;;;29.13;;
23155;SDS011;11746;50.876;4.246;2022-07-21T07:39:29;42.97;;;27.88;;
23155;SDS011;11746;50.876;4.246;2022-07-21T07:41:55;48.25;;;28.77;;
23155;SDS011;11746;50.876;4.246;2022-07-21T07:44:21;43.08;;;28.35;;
23155;SDS011;11746;50.876;4.246;2022-07-21T07:46:47;44.42;;;27.55;;
23155;SDS011;11746;50.876;4.246;2022-07-21T07:49:13;39.25;;;27.40;;
23155;SDS011;11746;50.876;4.246;2022-07-21T07:51:42;42.50;;;27.42;;
23155;SDS011;11746;50.876;4.246;2022-07-21T07:54:08;42.35;;;28.48;;
23155;SDS011;11746;50.876;4.246;2022-07-21T07:56:37;39.25;;;27.35;;
23155;SDS011;11746;50.876;4.246;2022-07-21T07:59:07;37.15;;;25.70;;
23155;SDS011;11746;50.876;4.246;2022-07-21T08:01:36;34.20;;;22.88;;
23155;SDS011;11746;50.876;4.246;2022-07-21T08:04:09;31.15;;;22.92;;
23155;SDS011;11746;50.876;4.246;2022-07-21T08:06:35;29.88;;;22.67;;
23155;SDS011;11746;50.876;4.246;2022-07-21T08:09:00;30.83;;;23.05;;
23155;SDS011;11746;50.876;4.246;2022-07-21T08:11:26;29.48;;;21.92;;
23155;SDS011;11746;50.876;4.246;2022-07-21T08:13:52;28.75;;;20.90;;
23155;SDS011;11746;50.876;4.246;2022-07-21T08:16:17;27.77;;;21.40;;
23155;SDS011;11746;50.876;4.246;2022-07-21T08:18:43;28.95;;;22.40;;
23155;SDS011;11746;50.876;4.246;2022-07-21T08:21:10;26.85;;;21.48;;
23155;SDS011;11746;50.876;4.246;2022-07-21T08:23:36;29.90;;;21.55;;
23155;SDS011;11746;50.876;4.246;2022-07-21T08:26:04;28.70;;;20.95;;
23155;SDS011;11746;50.876;4.246;2022-07-21T08:28:30;31.27;;;20.60;;
23155;SDS011;11746;50.876;4.246;2022-07-21T08:30:58;28.65;;;20.70;;
23155;SDS011;11746;50.876;4.246;2022-07-21T08:33:24;28.40;;;21.00;;
23155;SDS011;11746;50.876;4.246;2022-07-21T08:35:49;27.30;;;20.85;;
23155;SDS011;11746;50.876;4.246;2022-07-21T08:38:18;26.33;;;18.80;;
23155;SDS011;11746;50.876;4.246;2022-07-21T08:40:48;25.48;;;18.80;;
23155;SDS011;11746;50.876;4.246;2022-07-21T08:43:13;22.58;;;18.13;;
23155;SDS011;11746;50.876;4.246;2022-07-21T08:45:42;20.75;;;16.40;;
23155;SDS011;11746;50.876;4.246;2022-07-21T08:48:09;21.35;;;16.17;;
23155;SDS011;11746;50.876;4.246;2022-07-21T08:50:38;20.58;;;16.38;;
23155;SDS011;11746;50.876;4.246;2022-07-21T08:53:05;23.17;;;15.80;;
23155;SDS011;11746;50.876;4.246;2022-07-21T08:55:31;18.60;;;13.35;;
23155;SDS011;11746;50.876;4.246;2022-07-21T08:58:01;16.15;;;12.77;;
23155;SDS011;11746;50.876;4.246;2022-07-21T09:00:31;16.15;;;12.55;;
23155;SDS011;11746;50.876;4.246;2022-07-21T09:06:05;14.98;;;11.57;;
23155;SDS011;11746;50.876;4.246;2022-07-21T09:16:56;12.77;;;9.25;;
23155;SDS011;11746;50.876;4.246;2022-07-21T09:19:36;12.82;;;9.25;;
23155;SDS011;11746;50.876;4.246;2022-07-21T09:22:14;11.30;;;9.17;;
23155;SDS011;11746;50.876;4.246;2022-07-21T09:24:48;13.73;;;8.95;;
23155;SDS011;11746;50.876;4.246;2022-07-21T09:27:24;11.73;;;8.93;;
23155;SDS011;11746;50.876;4.246;2022-07-21T09:29:57;12.40;;;9.07;;
23155;SDS011;11746;50.876;4.246;2022-07-21T09:32:26;14.50;;;9.10;;
23155;SDS011;11746;50.876;4.246;2022-07-21T09:34:53;12.70;;;8.40;;
23155;SDS011;11746;50.876;4.246;2022-07-21T09:37:23;13.30;;;9.00;;
23155;SDS011;11746;50.876;4.246;2022-07-21T09:39:52;14.27;;;9.13;;
23155;SDS011;11746;50.876;4.246;2022-07-21T09:42:27;11.07;;;8.40;;
23155;SDS011;11746;50.876;4.246;2022-07-21T09:45:02;12.85;;;8.55;;
23155;SDS011;11746;50.876;4.246;2022-07-21T09:47:30;12.65;;;8.25;;
23155;SDS011;11746;50.876;4.246;2022-07-21T09:49:58;12.60;;;7.93;;
23155;SDS011;11746;50.876;4.246;2022-07-21T09:54:55;12.80;;;8.07;;
23155;SDS011;11746;50.876;4.246;2022-07-21T09:57:27;11.88;;;8.77;;
23155;SDS011;11746;50.876;4.246;2022-07-21T09:59:53;12.93;;;8.50;;
23155;SDS011;11746;50.876;4.246;2022-07-21T10:02:30;12.43;;;7.57;;
23155;SDS011;11746;50.876;4.246;2022-07-21T10:05:02;14.18;;;8.90;;
23155;SDS011;11746;50.876;4.246;2022-07-21T10:07:33;11.60;;;7.90;;
23155;SDS011;11746;50.876;4.246;2022-07-21T10:10:03;11.60;;;8.18;;
23155;SDS011;11746;50.876;4.246;2022-07-21T10:12:32;12.68;;;7.75;;
23155;SDS011;11746;50.876;4.246;2022-07-21T10:14:58;14.73;;;7.78;;
23155;SDS011;11746;50.876;4.246;2022-07-21T10:17:25;13.13;;;7.80;;
23155;SDS011;11746;50.876;4.246;2022-07-21T10:22:40;14.25;;;8.43;;
23155;SDS011;11746;50.876;4.246;2022-07-21T10:25:27;11.70;;;8.33;;
23155;SDS011;11746;50.876;4.246;2022-07-21T10:28:12;15.13;;;8.35;;
23155;SDS011;11746;50.876;4.246;2022-07-21T10:33:07;15.05;;;8.80;;
23155;SDS011;11746;50.876;4.246;2022-07-21T10:35:37;15.25;;;8.82;;
23155;SDS011;11746;50.876;4.246;2022-07-21T10:38:05;15.70;;;9.38;;
23155;SDS011;11746;50.876;4.246;2022-07-21T10:45:30;15.70;;;9.30;;
23155;SDS011;11746;50.876;4.246;2022-07-21T10:48:08;15.27;;;8.55;;
23155;SDS011;11746;50.876;4.246;2022-07-21T10:50:55;14.80;;;8.80;;
23155;SDS011;11746;50.876;4.246;2022-07-21T10:53:23;16.15;;;9.50;;
23155;SDS011;11746;50.876;4.246;2022-07-21T10:55:54;17.80;;;8.85;;
23155;SDS011;11746;50.876;4.246;2022-07-21T11:03:20;15.25;;;8.10;;
23155;SDS011;11746;50.876;4.246;2022-07-21T11:08:35;14.88;;;7.45;;
23155;SDS011;11746;50.876;4.246;2022-07-21T11:19:27;10.18;;;7.45;;
23155;SDS011;11746;50.876;4.246;2022-07-21T11:24:35;11.68;;;7.13;;
23155;SDS011;11746;50.876;4.246;2022-07-21T11:27:08;10.50;;;6.75;;
23155;SDS011;11746;50.876;4.246;2022-07-21T11:29:39;10.80;;;6.93;;
23155;SDS011;11746;50.876;4.246;2022-07-21T11:32:09;11.90;;;6.18;;
23155;SDS011;11746;50.876;4.246;2022-07-21T11:34:37;16.70;;;6.47;;
23155;SDS011;11746;50.876;4.246;2022-07-21T11:37:18;15.05;;;6.60;;
23155;SDS011;11746;50.876;4.246;2022-07-21T11:40:02;10.80;;;6.20;;
23155;SDS011;11746;50.876;4.246;2022-07-21T11:42:39;15.80;;;6.50;;
23155;SDS011;11746;50.876;4.246;2022-07-21T11:45:07;13.23;;;5.72;;
23155;SDS011;11746;50.876;4.246;2022-07-21T11:47:39;10.35;;;5.22;;
23155;SDS011;11746;50.876;4.246;2022-07-21T11:50:08;11.10;;;5.30;;
23155;SDS011;11746;50.876;4.246;2022-07-21T11:52:36;9.57;;;4.88;;
23155;SDS011;11746;50.876;4.246;2022-07-21T11:55:03;12.50;;;5.43;;
23155;SDS011;11746;50.876;4.246;2022-07-21T11:57:33;8.52;;;3.88;;
23155;SDS011;11746;50.876;4.246;2022-07-21T11:59:59;7.90;;;3.78;;
23155;SDS011;11746;50.876;4.246;2022-07-21T12:02:32;10.52;;;4.72;;
23155;SDS011;11746;50.876;4.246;2022-07-21T12:05:00;8.45;;;3.70;;
23155;SDS011;11746;50.876;4.246;2022-07-21T12:07:36;9.95;;;4.47;;
23155;SDS011;11746;50.876;4.246;2022-07-21T12:10:13;8.35;;;4.32;;
23155;SDS011;11746;50.876;4.246;2022-07-21T12:12:49;8.57;;;4.82;;
23155;SDS011;11746;50.876;4.246;2022-07-21T12:15:18;10.13;;;4.40;;
23155;SDS011;11746;50.876;4.246;2022-07-21T12:20:23;13.68;;;5.10;;
23155;SDS011;11746;50.876;4.246;2022-07-21T12:22:51;16.02;;;5.40;;
23155;SDS011;11746;50.876;4.246;2022-07-21T12:25:34;11.32;;;5.07;;
23155;SDS011;11746;50.876;4.246;2022-07-21T12:28:04;16.05;;;4.80;;
23155;SDS011;11746;50.876;4.246;2022-07-21T12:30:35;11.20;;;5.03;;
23155;SDS011;11746;50.876;4.246;2022-07-21T12:33:11;13.90;;;4.90;;
23155;SDS011;11746;50.876;4.246;2022-07-21T12:35:39;12.38;;;4.60;;
23155;SDS011;11746;50.876;4.246;2022-07-21T12:38:35;12.30;;;5.18;;
23155;SDS011;11746;50.876;4.246;2022-07-21T12:41:05;12.60;;;4.97;;
23155;SDS011;11746;50.876;4.246;2022-07-21T12:43:32;14.70;;;5.50;;
23155;SDS011;11746;50.876;4.246;2022-07-21T12:46:00;14.02;;;5.38;;
23155;SDS011;11746;50.876;4.246;2022-07-21T12:48:46;15.93;;;5.10;;
23155;SDS011;11746;50.876;4.246;2022-07-21T12:51:22;16.02;;;6.10;;
23155;SDS011;11746;50.876;4.246;2022-07-21T12:53:52;13.20;;;5.53;;
23155;SDS011;11746;50.876;4.246;2022-07-21T12:56:20;15.13;;;5.07;;
23155;SDS011;11746;50.876;4.246;2022-07-21T12:58:50;16.23;;;6.50;;
23155;SDS011;11746;50.876;4.246;2022-07-21T13:01:18;11.95;;;4.60;;
23155;SDS011;11746;50.876;4.246;2022-07-21T13:03:49;17.48;;;6.18;;
23155;SDS011;11746;50.876;4.246;2022-07-21T13:06:18;14.30;;;4.88;;
23155;SDS011;11746;50.876;4.246;2022-07-21T13:08:46;13.15;;;5.15;;
23155;SDS011;11746;50.876;4.246;2022-07-21T13:11:18;11.07;;;4.88;;
23155;SDS011;11746;50.876;4.246;2022-07-21T13:13:48;15.52;;;6.00;;
23155;SDS011;11746;50.876;4.246;2022-07-21T13:16:17;14.07;;;5.53;;
23155;SDS011;11746;50.876;4.246;2022-07-21T13:18:44;13.45;;;5.20;;
23155;SDS011;11746;50.876;4.246;2022-07-21T13:21:10;16.60;;;5.50;;
23155;SDS011;11746;50.876;4.246;2022-07-21T13:23:36;13.20;;;5.97;;
23155;SDS011;11746;50.876;4.246;2022-07-21T13:26:04;14.30;;;5.28;;
23155;SDS011;11746;50.876;4.246;2022-07-21T13:28:30;13.20;;;5.50;;
23155;SDS011;11746;50.876;4.246;2022-07-21T13:30:59;17.38;;;6.10;;
23155;SDS011;11746;50.876;4.246;2022-07-21T13:33:29;19.55;;;6.20;;
23155;SDS011;11746;50.876;4.246;2022-07-21T13:35:55;13.80;;;5.85;;
23155;SDS011;11746;50.876;4.246;2022-07-21T13:38:23;14.50;;;5.63;;
23155;SDS011;11746;50.876;4.246;2022-07-21T13:40:49;14.90;;;5.50;;
23155;SDS011;11746;50.876;4.246;2022-07-21T13:43:14;15.85;;;5.90;;
23155;SDS011;11746;50.876;4.246;2022-07-21T13:45:41;18.58;;;6.10;;
23155;SDS011;11746;50.876;4.246;2022-07-21T13:48:07;13.48;;;5.60;;
23155;SDS011;11746;50.876;4.246;2022-07-21T13:50:32;13.43;;;5.50;;
23155;SDS011;11746;50.876;4.246;2022-07-21T13:53:00;16.05;;;5.93;;
23155;SDS011;11746;50.876;4.246;2022-07-21T13:55:26;12.98;;;5.82;;
23155;SDS011;11746;50.876;4.246;2022-07-21T13:57:54;14.50;;;5.45;;
23155;SDS011;11746;50.876;4.246;2022-07-21T14:00:24;15.65;;;6.03;;
23155;SDS011;11746;50.876;4.246;2022-07-21T14:02:51;16.75;;;6.22;;
23155;SDS011;11746;50.876;4.246;2022-07-21T14:05:19;18.45;;;5.85;;
23155;SDS011;11746;50.876;4.246;2022-07-21T14:07:49;15.27;;;5.75;;
23155;SDS011;11746;50.876;4.246;2022-07-21T14:10:15;14.73;;;5.57;;
23155;SDS011;11746;50.876;4.246;2022-07-21T14:12:43;18.33;;;6.07;;
23155;SDS011;11746;50.876;4.246;2022-07-21T14:15:12;17.23;;;6.20;;
23155;SDS011;11746;50.876;4.246;2022-07-21T14:17:38;13.55;;;5.05;;
23155;SDS011;11746;50.876;4.246;2022-07-21T14:20:04;16.90;;;5.25;;
23155;SDS011;11746;50.876;4.246;2022-07-21T14:22:30;14.32;;;4.43;;
23155;SDS011;11746;50.876;4.246;2022-07-21T14:24:56;13.35;;;4.28;;
23155;SDS011;11746;50.876;4.246;2022-07-21T14:27:40;11.20;;;4.35;;
23155;SDS011;11746;50.876;4.246;2022-07-21T14:30:08;15.00;;;4.97;;
23155;SDS011;11746;50.876;4.246;2022-07-21T14:32:36;13.32;;;5.18;;
23155;SDS011;11746;50.876;4.246;2022-07-21T14:35:02;11.55;;;4.25;;
23155;SDS011;11746;50.876;4.246;2022-07-21T14:37:31;8.30;;;4.53;;
23155;SDS011;11746;50.876;4.246;2022-07-21T14:39:59;12.25;;;4.70;;
23155;SDS011;11746;50.876;4.246;2022-07-21T14:42:24;13.13;;;4.13;;
23155;SDS011;11746;50.876;4.246;2022-07-21T14:44:51;11.32;;;4.35;;
23155;SDS011;11746;50.876;4.246;2022-07-21T14:47:16;12.98;;;4.07;;
23155;SDS011;11746;50.876;4.246;2022-07-21T14:49:42;11.77;;;4.20;;
23155;SDS011;11746;50.876;4.246;2022-07-21T14:52:08;11.95;;;4.38;;
23155;SDS011;11746;50.876;4.246;2022-07-21T14:54:39;11.82;;;3.80;;
23155;SDS011;11746;50.876;4.246;2022-07-21T14:57:05;12.88;;;4.25;;
23155;SDS011;11746;50.876;4.246;2022-07-21T14:59:31;10.80;;;4.35;;
23155;SDS011;11746;50.876;4.246;2022-07-21T15:02:00;11.07;;;3.95;;
23155;SDS011;11746;50.876;4.246;2022-07-21T15:04:25;11.13;;;3.80;;
23155;SDS011;11746;50.876;4.246;2022-07-21T15:06:51;12.90;;;4.53;;
23155;SDS011;11746;50.876;4.246;2022-07-21T15:09:16;11.52;;;3.42;;
23155;SDS011;11746;50.876;4.246;2022-07-21T15:11:45;9.70;;;3.47;;
23155;SDS011;11746;50.876;4.246;2022-07-21T15:14:13;10.50;;;3.42;;
23155;SDS011;11746;50.876;4.246;2022-07-21T15:16:39;10.45;;;4.10;;
23155;SDS011;11746;50.876;4.246;2022-07-21T15:19:07;13.10;;;4.00;;